Time;durP1;ratioP1;P1;durP2;ratioP2;P2;SDS_P1;SDS_P2;PMS_P1;PMS_P2;Temp;Humidity;BMP_temperature;BMP_pressure;BME280_temperature;BME280_humidity;BME280_pressure;Samples;Min_cycle;Max_cycle;Signal;HPM_P1;HPM_P2
2023/01/05 00:01:24;;;;;;;4.50;1.10;;;;;;;10.13;100.00;99802.88;7391851;19;20010;-54
2023/01/05 00:03:50;;;;;;;1.75;0.20;;;;;;;10.17;100.00;99791.56;7394151;19;20376;-55
2023/01/05 00:06:17;;;;;;;14.73;1.30;;;;;;;10.15;100.00;99794.06;7396506;19;20020;-54
2023/01/05 00:08:43;;;;;;;0.00;0.00;;;;;;;10.20;100.00;99794.16;7396474;19;20426;-55
2023/01/05 00:22:37;;;;;;;0.47;0.45;;;;;;;10.51;100.00;99816.06;7393838;19;20014;-56
2023/01/05 00:25:08;;;;;;;0.20;0.10;;;;;;;10.48;100.00;99817.78;7393945;19;20021;-56
2023/01/05 00:27:35;;;;;;;;;;;;;;;10.44;100.00;99819.19;7395504;19;20052;-56
2023/01/05 00:30:02;;;;;;;5.57;0.50;;;;;;;10.45;100.00;99823.53;7395074;19;19919;-56
2023/01/05 00:32:29;;;;;;;0.10;0.10;;;;;;;10.48;100.00;99825.38;7392470;19;20459;-56
2023/01/05 00:34:56;;;;;;;0.30;0.30;;;;;;;10.45;100.00;99835.44;7394535;19;20077;-56
2023/01/05 00:37:25;;;;;;;0.10;0.00;;;;;;;10.40;100.00;99826.97;7397174;19;20547;-56
2023/01/05 00:39:53;;;;;;;0.32;0.15;;;;;;;10.35;100.00;99845.09;7393267;19;20044;-56
2023/01/05 00:42:20;;;;;;;0.82;0.50;;;;;;;10.18;100.00;99854.34;7393442;19;20011;-56
2023/01/05 00:44:46;;;;;;;2.38;0.35;;;;;;;10.06;100.00;99853.28;7393384;19;20503;-56
2023/01/05 00:47:12;;;;;;;0.10;0.10;;;;;;;10.16;100.00;99859.59;7395018;19;20021;-56
2023/01/05 00:49:39;;;;;;;0.10;0.00;;;;;;;10.05;100.00;99862.13;7393994;19;20007;-56
2023/01/05 00:52:05;;;;;;;0.10;0.10;;;;;;;10.02;100.00;99872.16;7393596;19;20066;-56
2023/01/05 00:54:32;;;;;;;0.00;0.00;;;;;;;9.88;100.00;99881.19;7394020;19;20015;-56
2023/01/05 00:56:59;;;;;;;0.10;0.10;;;;;;;9.89;100.00;99882.75;7394270;19;20011;-56
2023/01/05 00:59:25;;;;;;;3.20;0.20;;;;;;;9.73;100.00;99894.22;7393791;19;20010;-56
2023/01/05 01:01:52;;;;;;;0.73;0.20;;;;;;;9.91;100.00;99896.94;7392389;19;20490;-56
2023/01/05 01:04:19;;;;;;;0.22;0.08;;;;;;;9.82;100.00;99892.19;7395127;19;20470;-56
2023/01/05 01:06:46;;;;;;;0.10;0.10;;;;;;;9.86;100.00;99887.22;7395547;19;20054;-56
2023/01/05 01:09:13;;;;;;;1.08;0.50;;;;;;;9.90;100.00;99889.81;7392574;19;20018;-56
2023/01/05 01:11:39;;;;;;;0.17;0.17;;;;;;;9.73;100.00;99894.22;7393326;19;20078;-55
2023/01/05 01:14:07;;;;;;;0.00;0.00;;;;;;;9.50;100.00;99890.13;7392609;19;20011;-55
2023/01/05 01:16:34;;;;;;;0.00;0.00;;;;;;;9.50;100.00;99890.13;7390754;19;20018;-56
2023/01/05 01:19:00;;;;;;;4.05;0.85;;;;;;;9.26;100.00;99891.25;7397595;19;20015;-55
2023/01/05 01:21:26;;;;;;;1.17;0.10;;;;;;;9.29;100.00;99890.34;7391150;19;20046;-55
2023/01/05 01:23:53;;;;;;;3.53;0.20;;;;;;;9.40;100.00;99893.41;7394100;19;20021;-55
2023/01/05 01:26:19;;;;;;;1.65;0.85;;;;;;;9.41;100.00;99890.16;7395545;19;20450;-56
2023/01/05 01:28:46;;;;;;;4.28;0.45;;;;;;;9.43;100.00;99892.44;7397456;19;20050;-56
2023/01/05 01:31:12;;;;;;;0.10;0.00;;;;;;;9.43;100.00;99895.22;7392143;19;20019;-56
2023/01/05 01:33:39;;;;;;;0.08;0.08;;;;;;;9.40;100.00;99896.19;7393197;19;20349;-55
2023/01/05 01:36:07;;;;;;;7.25;0.20;;;;;;;9.20;100.00;99895.91;7392711;19;20019;-55
2023/01/05 01:38:33;;;;;;;6.32;0.63;;;;;;;9.19;100.00;99895.13;7395615;19;20414;-55
2023/01/05 01:41:00;;;;;;;7.13;0.28;;;;;;;9.26;100.00;99891.25;7392488;19;20014;-56
2023/01/05 01:43:46;;;;;;;6.28;0.63;;;;;;;9.32;100.00;99889.38;7393834;19;20014;-55
2023/01/05 01:46:15;;;;;;;0.00;0.00;;;;;;;9.22;100.00;99885.88;7392428;19;20353;-56
2023/01/05 01:48:47;;;;;;;4.15;0.45;;;;;;;9.45;100.00;99881.63;7396505;19;20035;-55
2023/01/05 01:51:18;;;;;;;0.10;0.10;;;;;;;9.30;100.00;99877.97;7393720;19;20026;-56
2023/01/05 01:53:49;;;;;;;0.95;0.13;;;;;;;9.27;100.00;99893.56;7391525;19;20030;-55
2023/01/05 01:56:18;;;;;;;0.43;0.40;;;;;;;9.24;100.00;99888.16;7392306;19;20013;-55
2023/01/05 01:58:44;;;;;;;2.55;0.25;;;;;;;9.27;100.00;99893.56;7396733;19;20049;-55
2023/01/05 02:01:11;;;;;;;2.30;0.10;;;;;;;9.33;100.00;99890.94;7390648;19;20066;-55
2023/01/05 02:03:38;;;;;;;0.30;0.30;;;;;;;9.30;100.00;99902.97;7390996;19;20017;-55
2023/01/05 02:06:05;;;;;;;1.08;0.75;;;;;;;9.28;100.00;99905.44;7393679;19;20741;-55
2023/01/05 02:08:31;;;;;;;0.22;0.10;;;;;;;9.29;100.00;99915.34;7396538;19;20435;-55
2023/01/05 02:11:10;;;;;;;3.55;0.28;;;;;;;9.33;100.00;99918.72;7391109;19;20044;-55
2023/01/05 02:13:49;;;;;;;0.32;0.22;;;;;;;9.44;100.00;99919.03;7390943;19;20003;-55
2023/01/05 02:16:18;;;;;;;0.77;0.50;;;;;;;9.26;100.00;99928.16;7391512;19;20378;-55
2023/01/05 02:19:25;;;;;;;0.10;0.00;;;;;;;9.09;100.00;99922.16;7395301;19;20011;-55
2023/01/05 02:22:29;;;;;;;1.02;0.10;;;;;;;9.09;100.00;99918.59;7391487;19;20019;-55
2023/01/05 02:25:32;;;;;;;2.05;0.75;;;;;;;9.29;100.00;99923.69;7393153;19;20018;-55
2023/01/05 02:28:37;;;;;;;0.73;0.10;;;;;;;9.04;100.00;99933.09;7393217;19;20007;-55
2023/01/05 02:31:07;;;;;;;0.10;0.10;;;;;;;8.93;100.00;99928.00;7392212;19;20007;-55
2023/01/05 02:33:53;;;;;;;0.25;0.25;;;;;;;8.92;100.00;99942.38;7391367;19;20478;-55
2023/01/05 02:36:35;;;;;;;0.10;0.00;;;;;;;8.83;100.00;99940.34;7393401;19;20455;-55
2023/01/05 02:39:15;;;;;;;0.10;0.10;;;;;;;8.70;100.00;99947.28;7394933;19;20495;-55
2023/01/05 02:41:57;;;;;;;0.20;0.20;;;;;;;8.78;100.00;99957.63;7394615;19;20484;-55
2023/01/05 02:44:28;;;;;;;3.53;0.55;;;;;;;8.74;100.00;99965.31;7391589;19;20042;-55
2023/01/05 02:47:05;;;;;;;2.80;1.30;;;;;;;8.97;100.00;99961.94;7389552;19;20039;-55
2023/01/05 02:49:38;;;;;;;0.10;0.00;;;;;;;9.01;100.00;99965.34;7390189;19;20015;-55
2023/01/05 02:52:07;;;;;;;4.50;0.52;;;;;;;9.02;100.00;99972.47;7390449;19;20021;-55
2023/01/05 02:54:44;;;;;;;4.70;0.28;;;;;;;9.26;100.00;99969.06;7390134;19;20686;-56
2023/01/05 02:57:16;;;;;;;0.28;0.10;;;;;;;9.11;100.00;99974.47;7389823;19;20018;-55
2023/01/05 02:59:47;;;;;;;0.25;0.20;;;;;;;9.22;100.00;99976.78;7390608;19;20010;-55
2023/01/05 03:02:18;;;;;;;;;;;;;;;9.31;100.00;99974.00;7389706;19;20018;-55
2023/01/05 03:04:53;;;;;;;0.63;0.38;;;;;;;9.34;100.00;99970.28;7388388;19;19922;-55
2023/01/05 03:07:33;;;;;;;0.28;0.28;;;;;;;9.44;100.00;99963.50;7393269;19;20010;-55
2023/01/05 03:13:39;;;;;;;5.38;0.30;;;;;;;9.55;100.00;99975.66;7387950;19;20047;-55
2023/01/05 03:15:41;;;;;;;2.35;0.47;;;;;;;9.38;100.00;99960.56;7392217;19;20019;-55
2023/01/05 03:18:15;;;;;;;0.47;0.40;;;;;;;9.36;100.00;99954.69;7393033;19;20458;-55
2023/01/05 03:20:51;;;;;;;0.00;0.00;;;;;;;9.72;100.00;99951.09;7386737;19;20011;-55
2023/01/05 03:35:31;;;;;;;0.00;0.00;;;;;;;9.80;100.00;99960.63;7387929;19;20018;-55
2023/01/05 03:38:21;;;;;;;1.45;0.47;;;;;;;9.62;100.00;99963.44;7389931;19;20421;-55
2023/01/05 03:40:51;;;;;;;0.10;0.10;;;;;;;9.50;100.00;99972.75;7386626;19;20026;-55
2023/01/05 03:43:19;;;;;;;0.10;0.10;;;;;;;9.57;100.00;99972.44;7388782;19;20014;-55
2023/01/05 03:45:54;;;;;;;0.35;0.22;;;;;;;9.96;100.00;99970.66;7393051;19;20791;-55
2023/01/05 03:48:25;;;;;;;0.00;0.00;;;;;;;9.91;100.00;99974.84;7391299;19;20010;-55
2023/01/05 03:50:52;;;;;;;0.20;0.20;;;;;;;9.82;100.00;99978.41;7388291;19;20011;-55
2023/01/05 03:53:20;;;;;;;0.85;0.20;;;;;;;9.78;100.00;99977.03;7388105;19;20014;-55
2023/01/05 03:55:46;;;;;;;0.20;0.20;;;;;;;9.84;100.00;99981.50;7388589;19;20035;-55
2023/01/05 03:58:13;;;;;;;0.00;0.00;;;;;;;9.89;100.00;99982.88;7390468;19;20021;-55
2023/01/05 04:00:43;;;;;;;0.10;0.10;;;;;;;9.97;100.00;99977.75;7386423;19;20021;-55
2023/01/05 04:03:12;;;;;;;3.63;1.48;;;;;;;9.93;100.00;99983.47;7387221;19;20010;-55
2023/01/05 04:05:38;;;;;;;0.10;0.00;;;;;;;9.87;100.00;99974.22;7388417;19;20014;-55
2023/01/05 04:08:05;;;;;;;0.10;0.00;;;;;;;9.79;100.00;99982.13;7391934;19;20013;-55
2023/01/05 04:10:32;;;;;;;0.20;0.13;;;;;;;9.70;100.00;99981.38;7388534;19;20091;-55
2023/01/05 04:13:00;;;;;;;0.05;0.00;;;;;;;9.61;100.00;99984.94;7388498;19;20021;-55
2023/01/05 04:15:27;;;;;;;1.25;0.13;;;;;;;9.59;100.00;99981.09;7389497;19;20018;-55
2023/01/05 04:17:54;;;;;;;0.10;0.10;;;;;;;9.57;100.00;99973.19;7390856;19;20114;-55
2023/01/05 04:20:20;;;;;;;0.40;0.25;;;;;;;9.44;100.00;99969.06;7386818;19;20086;-55
2023/01/05 04:22:47;;;;;;;0.35;0.35;;;;;;;9.33;100.00;99975.09;7393268;19;20491;-55
2023/01/05 04:25:15;;;;;;;5.57;0.40;;;;;;;9.22;100.00;99974.00;7392886;19;20578;-55
2023/01/05 04:27:43;;;;;;;0.10;0.00;;;;;;;9.08;100.00;99965.06;7393143;19;20088;-55
2023/01/05 04:30:09;;;;;;;9.07;0.65;;;;;;;8.89;100.00;99968.28;7392949;19;20035;-55
2023/01/05 04:32:36;;;;;;;7.22;1.13;;;;;;;8.75;100.00;99969.63;7391270;19;20068;-55
2023/01/05 04:35:03;;;;;;;0.00;0.00;;;;;;;8.64;100.00;99974.84;7390808;19;20019;-55
2023/01/05 04:37:32;;;;;;;0.10;0.10;;;;;;;8.54;100.00;99970.53;7390246;19;20031;-55
2023/01/05 04:40:00;;;;;;;0.40;0.40;;;;;;;8.54;100.00;99964.19;7387001;19;20477;-55
2023/01/05 04:42:27;;;;;;;0.73;0.55;;;;;;;8.59;100.00;99971.91;7387077;19;20035;-55
2023/01/05 04:44:54;;;;;;;0.50;0.50;;;;;;;8.50;100.00;99969.13;7395047;19;20017;-55
2023/01/05 04:47:21;;;;;;;5.43;0.22;;;;;;;8.32;100.00;99967.06;7395659;19;20006;-55
2023/01/05 04:49:49;;;;;;;1.35;0.28;;;;;;;8.11;100.00;99965.09;7395636;19;20042;-55
2023/01/05 04:52:16;;;;;;;0.00;0.00;;;;;;;8.04;100.00;99971.69;7392872;19;20022;-55
2023/01/05 04:54:43;;;;;;;1.95;0.50;;;;;;;7.95;100.00;99962.59;7394053;19;20109;-55
2023/01/05 04:57:10;;;;;;;0.10;0.00;;;;;;;7.85;100.00;99970.06;7396742;19;20087;-55
2023/01/05 04:59:37;;;;;;;0.10;0.10;;;;;;;7.80;100.00;99972.63;7393859;19;20463;-55
2023/01/05 05:02:04;;;;;;;0.00;0.00;;;;;;;7.71;100.00;99965.03;7394216;19;20049;-55
2023/01/05 05:04:32;;;;;;;0.28;0.20;;;;;;;7.65;100.00;99973.19;7393335;19;20038;-55
2023/01/05 05:06:59;;;;;;;0.47;0.47;;;;;;;7.58;100.00;99970.69;7395038;19;20685;-55
2023/01/05 05:09:30;;;;;;;0.45;0.20;;;;;;;7.55;100.00;99968.03;7397845;19;20038;-55
2023/01/05 05:11:58;;;;;;;1.38;0.10;;;;;;;7.36;100.00;99972.66;7397433;19;20014;-55
2023/01/05 05:14:24;;;;;;;4.43;0.57;;;;;;;7.22;100.00;99975.97;7398258;19;20490;-55
2023/01/05 05:16:51;;;;;;;5.22;0.40;;;;;;;7.35;100.00;99971.13;7399267;19;20459;-55
2023/01/05 05:19:17;;;;;;;0.10;0.10;;;;;;;7.29;100.00;99975.72;7397178;19;20078;-55
2023/01/05 05:21:43;;;;;;;0.10;0.10;;;;;;;7.29;100.00;99972.94;7394538;19;20103;-55
2023/01/05 05:24:11;;;;;;;0.20;0.10;;;;;;;7.26;100.00;99976.59;7395142;19;20011;-55
2023/01/05 05:26:41;;;;;;;0.10;0.00;;;;;;;7.22;100.00;99973.19;7398660;19;20014;-55
2023/01/05 05:29:07;;;;;;;6.45;0.55;;;;;;;7.10;100.00;99964.94;7399314;19;20011;-55
2023/01/05 05:31:33;;;;;;;0.10;0.00;;;;;;;7.31;100.00;99972.50;7395748;19;20042;-55
2023/01/05 05:33:59;;;;;;;0.10;0.10;;;;;;;6.70;100.00;99964.72;7395812;19;20074;-55
2023/01/05 05:36:25;;;;;;;0.10;0.10;;;;;;;6.83;100.00;99963.47;7395762;19;20102;-54
2023/01/05 05:38:51;;;;;;;1.00;0.40;;;;;;;6.91;100.00;99969.53;7398890;19;20566;-54
2023/01/05 05:41:17;;;;;;;0.50;0.25;;;;;;;6.80;100.00;99969.91;7395968;19;20010;-55
2023/01/05 05:43:44;;;;;;;12.77;0.35;;;;;;;6.83;100.00;99968.22;7394720;19;20035;-54
2023/01/05 05:46:10;;;;;;;0.10;0.10;;;;;;;6.75;100.00;99966.94;7397396;19;20474;-54
2023/01/05 05:48:36;;;;;;;0.20;0.15;;;;;;;7.04;100.00;99964.72;7396566;19;20017;-55
2023/01/05 05:51:02;;;;;;;0.40;0.38;;;;;;;7.02;100.00;99969.94;7394079;19;20018;-54
2023/01/05 05:53:28;;;;;;;0.00;0.00;;;;;;;7.23;100.00;99963.69;7393836;19;20089;-54
2023/01/05 05:55:54;;;;;;;0.57;0.38;;;;;;;7.30;100.00;99968.94;7391934;19;20031;-54
2023/01/05 05:58:21;;;;;;;0.10;0.00;;;;;;;7.32;100.00;99971.28;7396087;19;20043;-54
2023/01/05 06:00:47;;;;;;;2.22;0.38;;;;;;;7.19;100.00;99979.63;7393187;19;20114;-54
2023/01/05 06:03:13;;;;;;;0.10;0.10;;;;;;;7.27;100.00;99974.63;7395705;19;20010;-54
2023/01/05 06:05:39;;;;;;;0.10;0.00;;;;;;;7.52;100.00;99960.63;7395882;19;20010;-54
2023/01/05 06:08:06;;;;;;;2.53;0.63;;;;;;;7.55;100.00;99965.28;7395904;19;20497;-55
2023/01/05 06:10:32;;;;;;;0.13;0.13;;;;;;;7.59;100.00;99961.16;7393274;19;20017;-55
2023/01/05 06:12:58;;;;;;;0.10;0.00;;;;;;;7.64;100.00;99960.53;7391573;19;20014;-55
2023/01/05 06:15:24;;;;;;;5.28;0.95;;;;;;;7.64;100.00;99959.78;7393286;19;20018;-54
2023/01/05 06:17:50;;;;;;;0.10;0.00;;;;;;;7.73;100.00;99950.75;7392925;19;20003;-54
2023/01/05 06:20:17;;;;;;;19.83;1.15;;;;;;;7.79;100.00;99954.47;7391942;19;20015;-55
2023/01/05 06:22:43;;;;;;;3.92;0.47;;;;;;;7.79;100.00;99941.41;7392330;19;20021;-54
2023/01/05 06:25:09;;;;;;;0.22;0.13;;;;;;;7.70;100.00;99935.03;7393786;19;20133;-54
2023/01/05 06:27:36;;;;;;;0.70;0.30;;;;;;;7.64;100.00;99937.63;7394100;19;20010;-54
2023/01/05 06:30:03;;;;;;;0.10;0.00;;;;;;;7.67;100.00;99941.50;7393243;19;20348;-55
2023/01/05 06:32:29;;;;;;;0.30;0.10;;;;;;;7.45;100.00;99938.75;7392873;19;20372;-54
2023/01/05 06:34:55;;;;;;;0.28;0.20;;;;;;;7.20;100.00;99941.63;7393077;19;20011;-55
2023/01/05 06:37:21;;;;;;;2.65;0.77;;;;;;;7.14;100.00;99937.91;7393130;19;20015;-55
2023/01/05 06:39:47;;;;;;;0.65;0.65;;;;;;;7.38;100.00;99937.00;7392269;19;20018;-54
2023/01/05 06:42:14;;;;;;;11.63;1.95;;;;;;;7.41;100.00;99933.31;7392542;19;20053;-54
2023/01/05 06:44:41;;;;;;;0.30;0.20;;;;;;;7.37;100.00;99929.91;7392431;19;20469;-55
2023/01/05 06:47:07;;;;;;;0.55;0.32;;;;;;;6.97;100.00;99928.22;7393022;19;20007;-54
2023/01/05 06:49:33;;;;;;;0.10;0.10;;;;;;;7.32;100.00;99933.25;7393540;19;20086;-54
2023/01/05 06:51:59;;;;;;;0.80;0.80;;;;;;;7.19;100.00;99929.78;7396821;19;20014;-54
2023/01/05 06:54:25;;;;;;;1.00;0.52;;;;;;;7.19;100.00;99940.09;7397113;19;20376;-54
2023/01/05 06:56:52;;;;;;;17.92;1.27;;;;;;;7.17;100.00;99940.53;7396690;19;20024;-54
2023/01/05 06:59:18;;;;;;;1.73;0.75;;;;;;;7.31;100.00;99942.78;7396471;19;20018;-54
2023/01/05 07:01:44;;;;;;;9.35;0.85;;;;;;;7.29;100.00;99945.25;7393869;19;20031;-54
2023/01/05 07:04:10;;;;;;;16.25;1.45;;;;;;;7.59;100.00;99940.97;7394708;19;20335;-55
2023/01/05 07:06:37;;;;;;;13.50;0.98;;;;;;;7.82;100.00;99940.47;7392424;19;20341;-56
2023/01/05 07:09:10;;;;;;;1.77;1.35;;;;;;;7.98;100.00;99939.47;7399011;19;20087;-54
2023/01/05 07:11:36;;;;;;;6.50;1.17;;;;;;;8.07;100.00;99939.50;7391980;19;20396;-54
2023/01/05 07:14:02;;;;;;;2.78;0.68;;;;;;;8.00;100.00;99937.00;7391925;19;20014;-54
2023/01/05 07:16:28;;;;;;;9.85;0.77;;;;;;;8.03;100.00;99944.44;7390438;19;20030;-53
2023/01/05 07:19:00;;;;;;;1.35;0.30;;;;;;;8.04;100.00;99938.41;7395216;19;20007;-54
2023/01/05 07:21:27;;;;;;;5.13;0.93;;;;;;;8.25;100.00;99936.81;7390584;19;20029;-54
2023/01/05 07:23:53;;;;;;;1.92;0.95;;;;;;;8.01;100.00;99933.03;7393464;19;20027;-54
2023/01/05 07:26:19;;;;;;;8.52;1.45;;;;;;;8.29;100.00;99926.38;7390868;19;20344;-55
2023/01/05 07:28:45;;;;;;;3.42;1.10;;;;;;;8.41;100.00;99931.00;7393942;19;20015;-55
2023/01/05 07:31:12;;;;;;;7.65;0.63;;;;;;;8.54;100.00;99930.88;7390639;19;20021;-55
2023/01/05 07:33:38;;;;;;;2.97;0.60;;;;;;;8.51;100.00;99932.56;7389420;19;20011;-55
2023/01/05 07:36:05;;;;;;;4.75;0.50;;;;;;;8.52;100.00;99928.56;7394238;19;20344;-55
2023/01/05 07:38:31;;;;;;;7.13;1.17;;;;;;;8.58;100.00;99918.41;7392265;19;20014;-54
2023/01/05 07:40:59;;;;;;;24.92;0.80;;;;;;;8.64;100.00;99926.91;7389678;19;20015;-54
2023/01/05 07:43:25;;;;;;;2.00;0.35;;;;;;;8.61;100.00;99920.28;7390755;19;20015;-55
2023/01/05 07:45:56;;;;;;;1.38;0.30;;;;;;;8.66;100.00;99919.66;7393058;19;20356;-55
2023/01/05 07:48:22;;;;;;;;;;;;;;;8.74;100.00;99922.91;7394144;19;20006;-54
2023/01/05 07:50:48;;;;;;;0.10;0.10;;;;;;;8.78;100.00;99923.53;7391876;19;19919;-54
2023/01/05 07:53:15;;;;;;;0.30;0.20;;;;;;;8.76;100.00;99914.88;7394743;19;20015;-54
2023/01/05 07:55:41;;;;;;;10.43;1.10;;;;;;;8.79;100.00;99925.81;7394392;19;20018;-55
2023/01/05 07:58:07;;;;;;;0.40;0.40;;;;;;;8.80;100.00;99921.06;7395949;19;20462;-54
2023/01/05 08:00:34;;;;;;;0.10;0.10;;;;;;;8.75;100.00;99924.47;7391992;19;20070;-54
2023/01/05 08:03:00;;;;;;;1.45;1.00;;;;;;;8.77;100.00;99919.97;7392366;19;20014;-54
2023/01/05 08:05:29;;;;;;;0.10;0.10;;;;;;;8.87;100.00;99921.53;7391941;19;20010;-53
2023/01/05 08:07:55;;;;;;;5.10;0.75;;;;;;;8.92;100.00;99918.13;7393628;19;20478;-55
2023/01/05 08:10:27;;;;;;;4.22;1.02;;;;;;;8.86;100.00;99908.88;7392406;19;20019;-54
2023/01/05 08:15:38;;;;;;;0.20;0.20;;;;;;;8.98;100.00;99905.19;7391304;19;20027;-56
2023/01/05 08:18:04;;;;;;;2.90;0.98;;;;;;;8.96;100.00;99910.44;7392741;19;20015;-56
2023/01/05 08:20:30;;;;;;;0.47;0.47;;;;;;;8.89;100.00;99902.41;7394257;19;20543;-56
2023/01/05 08:22:57;;;;;;;2.45;0.28;;;;;;;9.00;100.00;99905.50;7396709;19;20021;-56
2023/01/05 08:25:23;;;;;;;0.45;0.45;;;;;;;9.14;100.00;99902.06;7395423;19;20101;-56
2023/01/05 08:27:49;;;;;;;0.35;0.22;;;;;;;9.19;100.00;99903.47;7397773;19;20358;-56
2023/01/05 08:30:15;;;;;;;0.70;0.50;;;;;;;9.25;100.00;99906.41;7396174;19;20022;-56
2023/01/05 08:32:42;;;;;;;0.47;0.20;;;;;;;9.06;100.00;99895.28;7395016;19;20014;-56
2023/01/05 08:35:09;;;;;;;1.98;0.95;;;;;;;9.09;100.00;99899.94;7395720;19;20015;-56
2023/01/05 08:37:35;;;;;;;0.55;0.43;;;;;;;9.18;100.00;99902.69;7394965;19;20078;-56
2023/01/05 08:40:01;;;;;;;8.30;1.05;;;;;;;9.24;100.00;99904.84;7394773;19;20436;-56
2023/01/05 08:42:27;;;;;;;22.85;1.13;;;;;;;9.56;100.00;99898.59;7394919;19;20111;-56
2023/01/05 08:44:53;;;;;;;0.22;0.10;;;;;;;9.73;100.00;99897.00;7396858;19;20434;-56
2023/01/05 08:47:19;;;;;;;0.40;0.40;;;;;;;9.77;100.00;99889.25;7395506;19;20011;-56
2023/01/05 08:49:46;;;;;;;4.10;1.48;;;;;;;9.81;100.00;99893.41;7394041;19;20019;-56
2023/01/05 08:52:12;;;;;;;0.47;0.30;;;;;;;9.92;100.00;99896.47;7393713;19;20014;-56
2023/01/05 08:54:38;;;;;;;3.50;1.45;;;;;;;9.89;100.00;99899.44;7393462;19;20357;-56
2023/01/05 08:57:04;;;;;;;5.05;1.20;;;;;;;10.01;100.00;99898.44;7393899;19;20007;-56
2023/01/05 08:59:30;;;;;;;0.10;0.10;;;;;;;10.18;100.00;99891.28;7395093;19;20615;-56
2023/01/05 09:01:56;;;;;;;1.30;0.22;;;;;;;10.16;100.00;99885.41;7390344;19;20074;-56
2023/01/05 09:04:24;;;;;;;0.10;0.10;;;;;;;10.21;100.00;99889.56;7395263;19;20018;-56
2023/01/05 09:06:50;;;;;;;6.03;0.50;;;;;;;10.21;100.00;99893.13;7399345;19;20074;-56
2023/01/05 09:09:16;;;;;;;1.65;0.43;;;;;;;10.28;100.00;99887.22;7395408;19;20656;-55
2023/01/05 09:11:42;;;;;;;5.85;0.63;;;;;;;10.30;100.00;99897.88;7395973;19;20025;-56
2023/01/05 09:14:15;;;;;;;3.05;0.52;;;;;;;10.35;100.00;99897.97;7392388;19;20849;-56
2023/01/05 09:16:41;;;;;;;0.28;0.28;;;;;;;10.72;100.00;99883.81;7398433;19;20018;-55
2023/01/05 09:19:08;;;;;;;0.20;0.10;;;;;;;10.56;100.00;99885.78;7398944;19;20010;-55
2023/01/05 09:21:34;;;;;;;0.57;0.47;;;;;;;10.58;100.00;99888.88;7389887;19;20018;-56
2023/01/05 09:24:00;;;;;;;3.53;0.57;;;;;;;10.60;100.00;99886.38;7394190;19;20015;-56
2023/01/05 09:26:27;;;;;;;4.68;0.57;;;;;;;10.62;100.00;99872.75;7394726;19;20014;-55
2023/01/05 09:28:53;;;;;;;6.00;0.45;;;;;;;10.65;100.00;99876.59;7397634;19;20017;-56
2023/01/05 09:31:21;;;;;;;6.57;0.70;;;;;;;10.66;100.00;99881.69;7394694;19;20014;-56
2023/01/05 09:33:47;;;;;;;0.95;0.75;;;;;;;10.61;100.00;99876.75;7391883;19;20044;-56
2023/01/05 09:36:15;;;;;;;0.32;0.22;;;;;;;10.50;100.00;99876.53;7393695;19;20010;-55
2023/01/05 09:38:42;;;;;;;1.02;0.63;;;;;;;10.52;100.00;99888.00;7397760;19;20074;-55
2023/01/05 09:41:30;;;;;;;7.78;0.47;;;;;;;10.60;100.00;99878.03;7392958;19;20491;-56
2023/01/05 09:44:01;;;;;;;5.78;0.95;;;;;;;10.86;100.00;99880.28;7393881;19;20014;-56
2023/01/05 09:46:35;;;;;;;0.93;0.40;;;;;;;10.96;100.00;99876.22;7398338;19;20475;-56
2023/01/05 09:49:06;;;;;;;1.77;0.75;;;;;;;11.13;100.00;99874.50;7396640;19;20018;-56
2023/01/05 09:51:33;;;;;;;0.65;0.43;;;;;;;11.17;100.00;99872.28;7394070;19;20014;-56
2023/01/05 09:54:00;;;;;;;5.97;0.38;;;;;;;11.28;100.00;99873.25;7392999;19;20048;-56
2023/01/05 09:56:30;;;;;;;3.45;0.55;;;;;;;11.42;100.00;99880.09;7392857;19;20021;-56
2023/01/05 09:59:24;;;;;;;0.85;0.43;;;;;;;11.42;100.00;99874.50;7397534;19;20015;-56
2023/01/05 10:01:53;;;;;;;4.93;0.85;;;;;;;11.44;100.00;99872.00;7391000;19;20018;-56
2023/01/05 10:04:22;;;;;;;0.30;0.30;;;;;;;11.61;100.00;99884.22;7392929;19;20015;-56
2023/01/05 10:07:19;;;;;;;1.98;0.38;;;;;;;11.35;100.00;99884.03;7398695;19;20503;-56
2023/01/05 10:09:47;;;;;;;0.10;0.00;;;;;;;11.50;100.00;99886.81;7393095;19;19995;-56
2023/01/05 10:15:32;;;;;;;1.77;0.20;;;;;;;11.62;100.00;99885.75;7397366;19;20354;-56
2023/01/05 10:18:01;;;;;;;0.43;0.25;;;;;;;11.59;100.00;99889.50;7393732;19;20011;-56
2023/01/05 10:20:53;;;;;;;2.78;0.60;;;;;;;11.58;100.00;99899.13;7394335;19;20017;-56
2023/01/05 10:23:46;;;;;;;1.55;0.63;;;;;;;11.58;100.00;99892.78;7392333;19;20014;-56
2023/01/05 10:26:24;;;;;;;2.13;0.13;;;;;;;11.57;100.00;99894.78;7393644;19;20014;-56
2023/01/05 10:29:46;;;;;;;1.48;0.68;;;;;;;11.61;100.00;99889.03;7394041;19;20014;-56
2023/01/05 10:32:40;;;;;;;0.65;0.28;;;;;;;11.63;100.00;99892.84;7390085;19;20021;-56
2023/01/05 10:35:42;;;;;;;0.55;0.10;;;;;;;11.71;100.00;99901.66;7392355;19;20031;-56
2023/01/05 10:38:44;;;;;;;0.50;0.40;;;;;;;11.78;100.00;99888.06;7395888;19;20011;-56
2023/01/05 10:41:22;;;;;;;0.10;0.00;;;;;;;11.85;100.00;99895.28;7390651;19;20357;-56
2023/01/05 10:43:51;;;;;;;1.45;0.35;;;;;;;11.90;100.00;99895.38;7390664;19;20091;-56
2023/01/05 10:46:17;;;;;;;2.30;0.95;;;;;;;11.93;100.00;99883.22;7394098;19;20011;-56
2023/01/05 10:48:44;;;;;;;0.65;0.20;;;;;;;11.95;100.00;99879.97;7396016;19;20023;-56
2023/01/05 10:51:10;;;;;;;7.53;0.85;;;;;;;11.98;100.00;99888.13;7392163;19;20035;-56
2023/01/05 10:53:40;;;;;;;0.95;0.50;;;;;;;12.02;100.00;99890.72;7392128;19;20069;-56
2023/01/05 10:56:21;;;;;;;0.32;0.00;;;;;;;12.09;100.00;99895.91;7391627;19;20018;-56
2023/01/05 10:58:47;;;;;;;;;;;;;;;12.12;100.00;99887.34;7395270;19;20021;-56
2023/01/05 11:01:21;;;;;;;1.48;0.70;;;;;;;12.19;100.00;99891.75;7389034;19;19936;-56
2023/01/05 11:03:50;;;;;;;1.40;0.75;;;;;;;12.18;100.00;99888.19;7391559;19;20503;-56
2023/01/05 11:06:29;;;;;;;2.70;0.20;;;;;;;12.19;100.00;99891.75;7390662;19;20022;-56
2023/01/05 11:09:05;;;;;;;1.50;0.52;;;;;;;12.15;100.00;99891.94;7394804;19;20398;-56
2023/01/05 11:11:32;;;;;;;3.63;0.25;;;;;;;12.11;100.00;99894.19;7392410;19;20013;-56
2023/01/05 11:13:58;;;;;;;4.82;0.20;;;;;;;12.14;100.00;99892.44;7390708;19;20011;-56
2023/01/05 11:16:33;;;;;;;1.73;0.28;;;;;;;12.14;100.00;99876.47;7394334;19;20010;-56
2023/01/05 11:19:06;;;;;;;4.38;0.85;;;;;;;12.17;100.00;99889.44;7394405;19;20011;-56
2023/01/05 11:21:37;;;;;;;5.00;0.90;;;;;;;12.19;100.00;99875.75;7388543;19;20019;-56
2023/01/05 11:24:04;;;;;;;;;;;;;;;12.22;100.00;99878.84;7391325;19;20027;-56
2023/01/05 11:26:33;;;;;;;2.70;0.38;;;;;;;12.29;100.00;99870.81;7389126;19;19966;-56
2023/01/05 11:29:12;;;;;;;9.18;0.90;;;;;;;12.32;100.00;99872.66;7395137;19;20018;-56
2023/01/05 11:31:56;;;;;;;3.92;0.52;;;;;;;12.37;100.00;99871.16;7390361;19;20022;-56
2023/01/05 11:34:32;;;;;;;0.50;0.38;;;;;;;12.39;100.00;99863.09;7390477;19;20337;-56
2023/01/05 11:37:02;;;;;;;0.75;0.43;;;;;;;12.42;100.00;99862.09;7391755;19;20014;-56
2023/01/05 11:39:33;;;;;;;1.08;0.82;;;;;;;12.45;100.00;99856.31;7389688;19;20367;-56
2023/01/05 11:42:19;;;;;;;4.10;0.50;;;;;;;12.45;100.00;99839.53;7388385;19;20023;-56
2023/01/05 11:44:48;;;;;;;12.25;0.93;;;;;;;12.45;100.00;99833.97;7391101;19;20073;-56
2023/01/05 11:47:26;;;;;;;3.65;0.20;;;;;;;12.51;100.00;99834.81;7391901;19;20017;-56
2023/01/05 11:50:13;;;;;;;2.88;0.80;;;;;;;12.54;100.00;99839.41;7388673;19;20048;-56
2023/01/05 11:52:40;;;;;;;4.85;0.40;;;;;;;12.57;100.00;99834.88;7388654;19;20019;-56
2023/01/05 11:55:38;;;;;;;1.05;0.10;;;;;;;12.60;100.00;99823.50;7390268;19;20015;-56
2023/01/05 11:58:16;;;;;;;0.10;0.10;;;;;;;12.64;100.00;99812.09;7390269;19;20044;-56
2023/01/05 12:01:13;;;;;;;8.85;0.20;;;;;;;12.70;100.00;99804.53;7390048;19;20035;-56
2023/01/05 12:04:02;;;;;;;0.00;0.00;;;;;;;12.73;100.00;99798.00;7393252;19;20011;-56
2023/01/05 12:06:56;;;;;;;4.97;0.45;;;;;;;12.79;100.00;99796.78;7388342;19;20043;-56
2023/01/05 12:09:47;;;;;;;0.40;0.20;;;;;;;12.87;100.00;99797.09;7386760;19;20021;-56
2023/01/05 12:12:18;;;;;;;0.20;0.17;;;;;;;12.90;100.00;99782.16;7391832;19;20015;-56
2023/01/05 12:15:03;;;;;;;;;;;;;;;12.94;100.00;99786.28;7389706;19;20035;-56
2023/01/05 12:17:33;;;;;;;0.40;0.25;;;;;;;12.93;100.00;99784.72;7389908;19;19915;-56
2023/01/05 12:20:18;;;;;;;0.73;0.25;;;;;;;12.76;100.00;99780.22;7387722;19;20048;-56